This is the latest recevied weather packets stored in our database for station/object KK6LVQ-13. If no packets are shown the sender has not sent any weather packets the latest 10 day(s).
| Time | Temp. | Humidity | Pressure | Rain* | Wind** | Luminosity | Snow |
|---|---|---|---|---|---|---|---|
| 1777690445 | 13.33° C | 88% | 1017.7 hPa | 0 mm | - | 4 W/m² | - |
| 1777690143 | 13.33° C | 88% | 1017.7 hPa | 0 mm | - | 6 W/m² | - |
| 1777689841 | 13.33° C | 87% | 1017.6 hPa | 0 mm | - | 9 W/m² | - |
| 1777689538 | 13.89° C | 86% | 1017.7 hPa | 0 mm | - | 12 W/m² | - |
| 1777689236 | 13.89° C | 85% | 1017.5 hPa | 0 mm | - | 15 W/m² | - |
| 1777688934 | 14.44° C | 84% | 1017.3 hPa | 0 mm | - | 18 W/m² | - |
| 1777688630 | 14.44° C | 83% | 1017.4 hPa | 0 mm | - | 21 W/m² | - |
| 1777688327 | 15° C | 83% | 1017.2 hPa | 0 mm | - | 24 W/m² | - |
| 1777688024 | 15.56° C | 81% | 1017.2 hPa | 0 mm | - | 27 W/m² | - |
| 1777687721 | 16.11° C | 79% | 1017.3 hPa | 0 mm | - | 39 W/m² | - |
| 1777674387 | 23.33° C | 61% | 1017.9 hPa | 0 mm | - | 662 W/m² | - |
| 1777674085 | 23.33° C | 62% | 1017.9 hPa | 0 mm | - | 666 W/m² | - |
| 1777673782 | 23.33° C | 62% | 1018.3 hPa | 0 mm | - | 655 W/m² | - |
| 1777673177 | 22.78° C | 62% | 1018.3 hPa | 0 mm | - | 689 W/m² | - |
| 1777672874 | 22.78° C | 62% | 1018.4 hPa | 0 mm | - | 678 W/m² | - |
| 1777672571 | 23.33° C | 61% | 1018.5 hPa | 0 mm | - | 694 W/m² | - |
| 1777672266 | 23.89° C | 61% | 1018.6 hPa | 0 mm | - | 713 W/m² | - |
| 1777671961 | 23.33° C | 62% | 1018.5 hPa | 0 mm | - | 714 W/m² | - |
| 1777671354 | 22.78° C | 61% | 1018.4 hPa | 0 mm | - | 716 W/m² | - |
| 1777671050 | 22.78° C | 61% | 1018.7 hPa | 0 mm | - | 735 W/m² | - |
| 1777670746 | 22.78° C | 59% | 1018.6 hPa | 0 mm | - | 685 W/m² | - |
| 1777670443 | 23.33° C | 59% | 1018.6 hPa | 0 mm | - | 711 W/m² | - |
| 1777670140 | 23.33° C | 58% | 1018.8 hPa | 0 mm | - | 693 W/m² | - |
| 1777669838 | 23.33° C | 58% | 1018.6 hPa | 0 mm | - | 691 W/m² | - |
| 1777669534 | 22.78° C | 59% | 1018.8 hPa | 0 mm | - | 714 W/m² | - |
* Rain latest hour (hover to see other rain measurements)
** Current wind speed in m/s (hover to see current wind gust speed)